Airfield :
LOGIN :

Register | Disclaimer

   EN    FR    IT 

 










Legend :    VFR   Marginal VFR   IFR   Intensive IFR   Very Intensive IFR
Visi :
Ceiling :
>= 8 km
>= 3000ft
5 to 8 km
1000 to 3000 ft
1500m to 5 km
500 to 1000 ft
800 to 1500m
200 to 500 ft
< 800m
< 200 ft
Symbols :   Thunderstorms  Fog  Heavy snow  Heavy precipitations  Wind > 20 kt
SIGMETs :     Misc.  Thunderstorms  Icing  Turbulence  Mountain Waves  Volcanic Ashes







- Airport Elevation : 65 ft
- IATA code : PIK
- Download approach charts


EGPK - Glasgow Prestwick

CURRENT METAR :
  • 292350Z 18004KT 140V210 9999 -RA BKN015 11/09 Q1011

EXPIRED METARs :
  • 292320Z 19005KT 9999 FEW015 SCT040 11/09 Q1011
  • 292250Z 19006KT 160V240 9999 FEW012 SCT030 11/09 Q1011
  • 292220Z 18007KT 9999 FEW012 SCT030 11/09 Q1011
  • 292150Z 19007KT 9999 FEW012 SCT040 11/09 Q1011
  • 292120Z 18009KT 9999 FEW008 SCT030 11/09 Q1011

TAF TAF EGPK
Valid from the 30 at 00:00 until the 31 at 00:00 UTC


292257Z 3000/3024 19009KT 9999 FEW012 BKN030
PROB30
TEMPO 3000/3007 4000 -DZ BKN005
PROB40
TEMPO 3007/3024 4000 -RA BKN008
No reported NOTAMs for that airfield.



MET'MAP, your aeronautical weather chart ! - Copyright ORBIFLY December 2007 - Disclaimer

ORBIFLY MET'MAP TEAM :

Programming & Development : Alexandra Zaïnal
Concept & Development : Baudouin d'Aumeries
Co-Development & Prog : Marc-Olivier Méhu
Technical & hardware support : Manuel Goepfert

Contact : metmap@orbifly.com




SOURCES & CREDITS :

   NOAA